Time;durP1;ratioP1;P1;durP2;ratioP2;P2;SDS_P1;SDS_P2;PMS_P1;PMS_P2;Temp;Humidity;BMP_temperature;BMP_pressure;BME280_temperature;BME280_humidity;BME280_pressure;Samples;Min_cycle;Max_cycle;Signal;HPM_P1;HPM_P2
2021/11/20 00:00:12;;;;;;;8.00;6.95;;;;;;;13.15;69.18;100947.81;4898958;28;102206;-52
2021/11/20 00:02:38;;;;;;;9.43;7.40;;;;;;;13.17;69.10;100950.28;4907674;28;102601;-52
2021/11/20 00:05:06;;;;;;;9.13;6.82;;;;;;;13.16;69.03;100954.94;4898324;28;102271;-52
2021/11/20 00:07:33;;;;;;;9.23;7.28;;;;;;;13.16;69.10;100954.94;4905203;28;107798;-52
2021/11/20 00:10:01;;;;;;;7.97;6.63;;;;;;;13.16;69.08;100959.56;4900263;28;102348;-52
2021/11/20 00:12:30;;;;;;;9.20;7.03;;;;;;;13.17;68.93;100956.56;4904663;28;102718;-52
2021/11/20 00:14:58;;;;;;;9.45;7.38;;;;;;;13.17;69.07;100948.38;4898844;28;102202;-52
2021/11/20 00:17:26;;;;;;;8.18;6.65;;;;;;;13.17;69.03;100951.09;4916333;28;104159;-52
2021/11/20 00:19:53;;;;;;;8.73;7.32;;;;;;;13.16;69.26;100957.69;4893388;28;102306;-52
2021/11/20 00:22:25;;;;;;;8.93;6.93;;;;;;;13.17;69.15;100950.28;4892780;28;102225;-52
2021/11/20 00:24:54;;;;;;;7.93;6.57;;;;;;;13.17;69.12;100948.38;4896756;28;102807;-52
2021/11/20 00:27:24;;;;;;;8.43;6.85;;;;;;;13.16;69.06;100938.53;4899000;28;103185;-52
2021/11/20 00:32:29;;;;;;;8.07;6.57;;;;;;;13.17;69.03;100926.50;4901473;28;102280;-52
2021/11/20 00:34:59;;;;;;;7.68;6.63;;;;;;;13.16;68.99;100935.81;4897437;28;102265;-52
2021/11/20 00:37:26;;;;;;;8.73;6.93;;;;;;;13.16;69.12;100930.34;4895922;28;104121;-52
2021/11/20 00:39:53;;;;;;;8.70;6.57;;;;;;;13.17;69.04;100925.69;4895584;28;102400;-52
2021/11/20 00:42:20;;;;;;;7.78;6.30;;;;;;;13.17;69.16;100923.78;4895092;28;103107;-52
2021/11/20 00:44:47;;;;;;;7.88;6.40;;;;;;;13.17;69.33;100926.50;4886511;28;105384;-52
2021/11/20 00:47:17;;;;;;;8.07;6.20;;;;;;;13.17;69.26;100923.78;4896942;28;103721;-52
2021/11/20 00:49:44;;;;;;;8.30;6.70;;;;;;;13.17;69.09;100921.03;4905448;28;102313;-53
2021/11/20 00:52:12;;;;;;;8.05;6.35;;;;;;;13.17;69.52;100922.97;4904991;28;103514;-52
2021/11/20 00:54:39;;;;;;;8.48;6.63;;;;;;;13.17;69.01;100918.31;4902333;28;102530;-52
2021/11/20 00:57:06;;;;;;;7.60;6.15;;;;;;;13.17;69.16;100915.56;4903542;28;103743;-52
2021/11/20 00:59:32;;;;;;;7.90;6.40;;;;;;;13.17;69.04;100912.84;4889460;28;102236;-52
2021/11/20 01:02:01;;;;;;;8.30;6.40;;;;;;;13.17;69.33;100912.03;4893563;28;102883;-52
2021/11/20 01:04:30;;;;;;;8.17;6.23;;;;;;;13.18;69.18;100913.66;4898749;28;102433;-52
2021/11/20 01:06:58;;;;;;;6.95;6.05;;;;;;;13.18;69.13;100914.47;4896731;28;103934;-52
2021/11/20 01:09:29;;;;;;;8.13;6.20;;;;;;;13.18;69.31;100906.28;4896336;28;102192;-52
2021/11/20 01:11:58;;;;;;;7.90;6.28;;;;;;;13.16;69.03;100903.03;4894002;28;105622;-52
2021/11/20 01:14:25;;;;;;;7.07;5.88;;;;;;;13.18;69.14;100902.72;4895193;28;102334;-52
2021/11/20 01:16:53;;;;;;;6.75;6.00;;;;;;;13.18;69.02;100902.72;4896893;28;103962;-52
2021/11/20 01:19:21;;;;;;;7.35;6.30;;;;;;;13.18;69.21;100909.00;4912070;28;101990;-52
2021/11/20 01:21:51;;;;;;;8.20;6.22;;;;;;;13.18;69.37;100897.25;4894733;28;102431;-52
2021/11/20 01:24:19;;;;;;;7.05;6.20;;;;;;;13.17;69.14;100885.50;4896329;28;102229;-52
2021/11/20 01:26:46;;;;;;;7.55;5.90;;;;;;;13.17;69.10;100885.50;4893130;28;103952;-52
2021/11/20 01:29:16;;;;;;;8.70;5.95;;;;;;;13.17;69.17;100880.06;4896288;28;102553;-52
2021/11/20 01:31:47;;;;;;;7.03;5.70;;;;;;;13.17;69.18;100876.50;4895443;28;102289;-52
2021/11/20 01:34:14;;;;;;;8.68;6.63;;;;;;;13.17;69.18;100885.50;4833023;28;1826438;-52
2021/11/20 01:36:41;;;;;;;6.60;5.78;;;;;;;13.18;69.29;100881.66;4897101;28;104171;-52
2021/11/20 01:39:13;;;;;;;8.43;5.93;;;;;;;13.17;69.16;100880.06;4897573;28;102262;-52
2021/11/20 01:41:41;;;;;;;7.97;5.82;;;;;;;13.18;69.27;100881.66;4889639;28;102618;-53
2021/11/20 01:44:11;;;;;;;7.25;6.03;;;;;;;13.18;69.39;100876.22;4903765;28;102197;-52
2021/11/20 01:46:41;;;;;;;6.68;5.47;;;;;;;13.17;69.17;100871.84;4896454;28;108171;-53
2021/11/20 01:49:13;;;;;;;9.65;6.30;;;;;;;13.17;69.15;100871.84;4896259;28;102313;-52
2021/11/20 01:51:43;;;;;;;8.18;5.93;;;;;;;13.18;69.17;100864.47;4893096;28;102492;-52
2021/11/20 01:54:28;;;;;;;6.18;5.40;;;;;;;13.18;69.17;100873.47;4899559;28;102904;-52
2021/11/20 01:57:02;;;;;;;7.95;5.88;;;;;;;13.17;69.24;100874.59;4899732;28;103116;-52
2021/11/20 01:59:33;;;;;;;8.13;6.28;;;;;;;13.18;69.30;100869.94;4897121;28;102199;-52
2021/11/20 02:02:07;;;;;;;6.93;5.53;;;;;;;13.18;69.39;100869.94;4893706;28;104150;-52
2021/11/20 02:04:41;;;;;;;8.65;5.18;;;;;;;13.17;69.13;100869.13;4892056;28;102189;-52
2021/11/20 02:07:12;;;;;;;7.22;5.22;;;;;;;13.17;69.54;100871.84;4910723;28;103944;-52
2021/11/20 02:09:49;;;;;;;7.28;5.75;;;;;;;13.17;69.11;100857.38;4897887;28;102175;-52
2021/11/20 02:12:19;;;;;;;8.52;5.85;;;;;;;13.18;69.33;100870.75;4891327;28;102239;-52
2021/11/20 02:14:47;;;;;;;6.88;5.75;;;;;;;13.19;69.14;100850.50;4898273;28;102556;-52
2021/11/20 02:17:16;;;;;;;6.80;5.30;;;;;;;13.18;68.86;100848.88;4892737;28;104116;-52
2021/11/20 02:19:47;;;;;;;6.25;5.00;;;;;;;13.19;69.38;100849.69;4896367;28;102291;-52
2021/11/20 02:22:24;;;;;;;6.65;5.60;;;;;;;13.18;69.27;100843.41;4903266;28;102187;-52
2021/11/20 02:24:50;;;;;;;6.57;5.28;;;;;;;13.19;69.46;100849.69;4904510;28;102520;-52
2021/11/20 02:27:18;;;;;;;6.55;5.20;;;;;;;13.18;69.41;100842.59;4895314;28;103657;-52
2021/11/20 02:29:47;;;;;;;6.05;5.40;;;;;;;13.18;69.13;100850.81;4886536;28;103200;-52
2021/11/20 02:32:18;;;;;;;7.15;6.03;;;;;;;13.18;69.42;100843.41;4895451;28;102198;-52
2021/11/20 02:34:46;;;;;;;7.05;5.25;;;;;;;13.18;69.26;100851.63;4897632;28;102518;-52
2021/11/20 02:37:13;;;;;;;7.00;5.40;;;;;;;13.18;69.35;100843.41;4894533;28;104019;-52
2021/11/20 02:39:40;;;;;;;7.10;5.57;;;;;;;13.18;69.19;100843.41;4913486;28;102531;-52
2021/11/20 02:42:10;;;;;;;5.65;5.05;;;;;;;13.18;69.29;100837.94;4895783;28;102506;-53
2021/11/20 02:44:38;;;;;;;7.60;5.53;;;;;;;13.18;69.15;100832.47;4889270;28;102284;-53
2021/11/20 02:47:07;;;;;;;7.43;5.30;;;;;;;13.18;69.47;100831.69;4900646;28;103939;-52
2021/11/20 02:49:35;;;;;;;7.10;5.65;;;;;;;13.18;69.29;100828.94;4901054;28;102448;-52
2021/11/20 02:52:06;;;;;;;6.40;5.57;;;;;;;13.18;69.26;100829.75;4907118;28;102942;-52
2021/11/20 02:54:34;;;;;;;5.88;5.00;;;;;;;13.19;69.31;100827.84;4915831;28;102261;-52
2021/11/20 02:57:05;;;;;;;7.63;5.47;;;;;;;13.18;69.40;100821.56;4903608;28;104140;-52
2021/11/20 02:59:32;;;;;;;6.18;5.57;;;;;;;13.19;69.37;100816.91;4899808;28;102236;-52
2021/11/20 03:01:59;;;;;;;7.65;5.60;;;;;;;13.18;69.43;100816.09;4904600;28;102738;-52
2021/11/20 03:04:25;;;;;;;7.18;5.55;;;;;;;13.19;69.16;100822.38;4896707;28;102197;-52
2021/11/20 03:06:55;;;;;;;6.43;5.15;;;;;;;13.19;69.19;100816.91;4914110;28;103909;-52
2021/11/20 03:09:30;;;;;;;6.13;5.47;;;;;;;13.18;69.36;100816.09;4900197;28;102214;-52
2021/11/20 03:11:59;;;;;;;6.05;5.38;;;;;;;13.19;69.37;100814.97;4899756;28;102722;-52
2021/11/20 03:14:26;;;;;;;6.20;5.20;;;;;;;13.18;69.42;100816.09;4900395;28;102242;-52
2021/11/20 03:16:55;;;;;;;6.95;5.25;;;;;;;13.19;68.89;100817.72;4905316;28;104236;-52
2021/11/20 03:19:22;;;;;;;;;;;;;;;13.19;69.34;100805.97;4900350;28;102603;-53
2021/11/20 03:21:51;;;;;;;5.90;5.30;;;;;;;13.18;69.36;100796.97;4894396;28;102195;-52
2021/11/20 03:24:23;;;;;;;6.40;5.68;;;;;;;13.19;69.24;100790.38;4899962;28;102265;-52
2021/11/20 03:26:49;;;;;;;6.65;4.78;;;;;;;13.19;68.99;100795.03;4898952;28;104022;-52
2021/11/20 03:29:15;;;;;;;5.50;4.75;;;;;;;13.19;69.39;100789.56;4899771;28;102256;-52
2021/11/20 03:31:43;;;;;;;7.57;5.85;;;;;;;13.19;69.34;100790.38;4884216;28;102400;-52
2021/11/20 03:34:10;;;;;;;5.80;5.15;;;;;;;13.20;69.43;100791.22;4887971;28;102368;-52
2021/11/20 03:36:37;;;;;;;6.07;4.85;;;;;;;13.19;69.33;100792.31;4899612;28;103961;-52
2021/11/20 03:39:05;;;;;;;5.75;5.15;;;;;;;13.19;69.18;100784.91;4901737;28;102286;-52
2021/11/20 03:41:33;;;;;;;6.90;5.77;;;;;;;13.18;69.39;100780.56;4896826;28;102396;-53
2021/11/20 03:44:01;;;;;;;5.60;5.03;;;;;;;13.20;69.72;100792.03;4895270;28;102266;-52
2021/11/20 03:46:29;;;;;;;5.43;4.88;;;;;;;13.19;69.48;100779.44;4886932;28;103917;-52
2021/11/20 03:48:55;;;;;;;6.22;5.43;;;;;;;13.19;69.38;100784.91;4913241;28;102527;-52
2021/11/20 03:51:22;;;;;;;7.43;5.53;;;;;;;13.19;69.41;100784.91;4896165;28;102301;-52
2021/11/20 03:53:48;;;;;;;5.70;4.68;;;;;;;13.20;69.48;100775.63;4901172;28;102390;-52
2021/11/20 03:56:15;;;;;;;6.18;4.72;;;;;;;13.18;69.44;100775.09;4910461;28;104184;-52
2021/11/20 03:58:43;;;;;;;6.50;5.22;;;;;;;13.20;69.34;100781.09;4901252;28;102070;-52
2021/11/20 04:01:11;;;;;;;5.80;4.97;;;;;;;13.19;69.44;100773.19;4907999;28;102469;-52
2021/11/20 04:03:39;;;;;;;6.45;5.47;;;;;;;13.19;69.31;100784.91;4894518;28;102189;-52
2021/11/20 04:06:12;;;;;;;5.53;4.78;;;;;;;13.20;69.46;100781.09;4894921;28;103929;-52
2021/11/20 04:08:39;;;;;;;5.22;4.72;;;;;;;13.19;69.44;100779.44;4898327;28;102195;-52
2021/11/20 04:11:06;;;;;;;5.45;4.75;;;;;;;13.20;69.49;100785.75;4905749;28;102157;-52
2021/11/20 04:13:33;;;;;;;5.93;5.30;;;;;;;13.20;69.43;100785.75;4905232;28;102546;-53
2021/11/20 04:16:00;;;;;;;5.60;5.03;;;;;;;13.19;69.47;100784.91;4902764;28;103994;-52
2021/11/20 04:18:32;;;;;;;5.70;4.78;;;;;;;13.20;69.63;100783.84;4900359;28;102092;-52
2021/11/20 04:20:58;;;;;;;5.70;5.13;;;;;;;13.20;69.48;100786.56;4897610;28;102582;-52
2021/11/20 04:23:25;;;;;;;5.57;4.95;;;;;;;13.20;69.43;100786.56;4898485;28;102353;-52
2021/11/20 04:25:51;;;;;;;6.63;5.35;;;;;;;13.20;69.45;100780.28;4896890;28;105469;-53
2021/11/20 04:28:18;;;;;;;5.65;4.63;;;;;;;13.19;69.41;100779.44;4889543;28;102394;-52
2021/11/20 04:30:46;;;;;;;5.45;4.95;;;;;;;13.19;69.48;100771.25;4896572;28;102555;-52
2021/11/20 04:33:16;;;;;;;4.90;4.40;;;;;;;13.20;69.55;100781.09;4895430;28;102209;-52
2021/11/20 04:35:43;;;;;;;5.38;4.82;;;;;;;13.20;69.52;100781.09;4899669;28;103608;-52
2021/11/20 04:38:10;;;;;;;4.85;4.43;;;;;;;13.20;69.39;100770.16;4912811;28;101989;-53
2021/11/20 04:40:38;;;;;;;4.95;4.45;;;;;;;13.20;69.52;100775.63;4898276;28;102088;-52
2021/11/20 04:43:04;;;;;;;5.57;4.75;;;;;;;13.20;69.42;100774.81;4901747;28;102963;-52
2021/11/20 04:45:34;;;;;;;7.85;4.78;;;;;;;13.20;69.66;100770.16;4899529;28;103920;-52
2021/11/20 04:48:02;;;;;;;4.88;4.38;;;;;;;13.21;69.55;100754.59;4890728;28;102118;-53
2021/11/20 04:50:31;;;;;;;4.77;4.30;;;;;;;13.20;69.55;100761.97;4897719;28;102215;-53
2021/11/20 04:52:57;;;;;;;4.82;4.32;;;;;;;13.20;69.63;100753.78;4900067;28;102701;-52
2021/11/20 04:55:25;;;;;;;5.63;5.00;;;;;;;13.20;69.29;100748.31;4898602;28;103977;-53
2021/11/20 04:57:52;;;;;;;5.20;4.70;;;;;;;13.21;69.47;100754.59;4908559;28;102274;-52
2021/11/20 05:00:22;;;;;;;6.10;4.75;;;;;;;13.21;69.54;100749.13;4894369;28;102505;-52
2021/11/20 05:02:49;;;;;;;5.88;5.28;;;;;;;13.20;69.40;100742.84;4902670;28;103755;-53
2021/11/20 05:05:17;;;;;;;5.97;5.05;;;;;;;13.21;69.53;100751.84;4900797;28;103754;-52
2021/11/20 05:07:45;;;;;;;4.82;4.28;;;;;;;13.20;69.56;100745.59;4896265;28;102194;-53
2021/11/20 05:10:13;;;;;;;5.68;5.07;;;;;;;13.22;69.41;100746.09;4902721;28;102672;-52
2021/11/20 05:12:39;;;;;;;5.45;4.95;;;;;;;13.22;69.44;100734.34;4906900;28;102343;-52
2021/11/20 05:15:08;;;;;;;5.30;4.80;;;;;;;13.20;69.47;100726.44;4896888;28;104094;-53
2021/11/20 05:17:35;;;;;;;5.60;4.78;;;;;;;13.22;69.47;100728.88;4907271;28;102780;-52
2021/11/20 05:20:02;;;;;;;5.60;4.70;;;;;;;13.21;69.54;100733.53;4906225;28;102184;-52
2021/11/20 05:22:29;;;;;;;5.50;4.88;;;;;;;13.21;69.49;100744.47;4889609;28;102143;-52
2021/11/20 05:24:57;;;;;;;4.88;4.28;;;;;;;13.21;69.47;100744.47;4897198;28;103969;-52
2021/11/20 05:27:24;;;;;;;5.15;4.65;;;;;;;13.21;69.51;100747.19;4897784;28;102224;-52
2021/11/20 05:30:01;;;;;;;5.30;4.80;;;;;;;13.21;69.44;100755.41;4899836;28;102592;-52
2021/11/20 05:32:27;;;;;;;5.30;4.63;;;;;;;13.22;69.50;100754.28;4897856;28;102474;-52
2021/11/20 05:34:54;;;;;;;5.10;4.57;;;;;;;13.21;69.86;100752.66;4904782;28;104111;-52
2021/11/20 05:37:20;;;;;;;5.55;4.28;;;;;;;13.21;69.54;100752.66;4898732;28;102173;-52
2021/11/20 05:39:47;;;;;;;5.00;4.50;;;;;;;13.21;69.45;100755.41;4878625;28;102327;-52
2021/11/20 05:42:14;;;;;;;4.78;4.13;;;;;;;13.20;69.45;100753.78;4897055;28;102388;-52
2021/11/20 05:44:41;;;;;;;5.63;4.65;;;;;;;13.20;69.53;100745.59;4896570;28;103918;-52
2021/11/20 05:47:08;;;;;;;5.03;4.53;;;;;;;13.21;69.50;100755.41;4905292;28;102441;-52
2021/11/20 05:49:36;;;;;;;4.85;4.40;;;;;;;13.21;69.37;100766.34;4896969;28;102456;-52
2021/11/20 05:52:04;;;;;;;5.13;4.18;;;;;;;13.21;69.46;100760.88;4911827;28;102149;-52
2021/11/20 05:54:31;;;;;;;;;;;;;;;13.21;69.45;100749.94;4901114;28;104044;-53
2021/11/20 05:56:58;;;;;;;4.88;4.38;;;;;;;13.21;69.55;100765.53;4899060;28;102235;-52
2021/11/20 05:59:26;;;;;;;5.57;5.07;;;;;;;13.21;69.56;100766.34;4890110;28;102379;-52
2021/11/20 06:01:53;;;;;;;4.97;4.50;;;;;;;13.22;69.55;100767.13;4894156;28;102490;-52
2021/11/20 06:04:20;;;;;;;5.93;5.13;;;;;;;13.21;69.60;100763.59;4897647;28;104061;-52
2021/11/20 06:06:47;;;;;;;5.00;4.50;;;;;;;13.21;69.90;100763.59;4895934;28;102425;-52
2021/11/20 06:09:14;;;;;;;5.07;4.32;;;;;;;13.21;69.50;100769.06;4893571;28;102199;-52
2021/11/20 06:11:55;;;;;;;5.00;4.35;;;;;;;13.21;69.59;100770.97;4896569;28;102203;-53
2021/11/20 06:14:22;;;;;;;4.47;4.07;;;;;;;13.22;69.53;100776.16;4896566;28;103646;-53
2021/11/20 06:16:50;;;;;;;5.50;3.83;;;;;;;13.22;69.45;100789.81;4896075;28;102418;-53
2021/11/20 06:19:17;;;;;;;5.07;4.53;;;;;;;13.21;69.53;100785.47;4892949;28;102400;-53
2021/11/20 06:21:43;;;;;;;4.35;3.95;;;;;;;13.22;69.62;100775.34;4898247;28;102242;-52
2021/11/20 06:24:10;;;;;;;4.50;4.03;;;;;;;13.23;69.34;100776.97;4885057;28;103983;-52
2021/11/20 06:26:36;;;;;;;5.28;4.13;;;;;;;13.22;69.70;100778.06;4898075;28;102303;-52
2021/11/20 06:29:04;;;;;;;5.00;4.50;;;;;;;13.22;69.55;100778.88;4891373;28;102437;-52
2021/11/20 06:31:31;;;;;;;5.05;4.03;;;;;;;13.22;69.64;100787.09;4898149;28;102606;-52
2021/11/20 06:34:00;;;;;;;6.13;4.28;;;;;;;13.21;69.49;100785.47;4887125;28;104026;-52
2021/11/20 06:36:27;;;;;;;4.85;4.35;;;;;;;13.21;69.45;100793.66;4896906;28;102130;-52
2021/11/20 06:38:54;;;;;;;5.80;4.57;;;;;;;13.22;69.49;100791.75;4896287;28;102292;-52
2021/11/20 06:41:20;;;;;;;5.20;4.50;;;;;;;13.23;69.42;100801.56;4894626;28;102764;-53
2021/11/20 06:43:47;;;;;;;5.47;4.65;;;;;;;13.22;69.91;100806.22;4898795;28;103881;-52
2021/11/20 06:46:16;;;;;;;5.35;4.18;;;;;;;13.22;69.72;100802.66;4898011;28;102450;-53
2021/11/20 06:48:43;;;;;;;5.05;4.50;;;;;;;13.21;69.76;100792.84;4894514;28;102496;-53
2021/11/20 06:51:13;;;;;;;5.93;4.70;;;;;;;13.21;69.59;100788.19;4899757;28;102406;-53
2021/11/20 06:53:44;;;;;;;5.85;4.72;;;;;;;13.22;69.65;100798.00;4893876;28;102715;-52
2021/11/20 06:56:15;;;;;;;6.43;4.83;;;;;;;13.21;69.59;100793.66;4893486;28;102212;-53
2021/11/20 06:58:54;;;;;;;4.97;4.47;;;;;;;13.22;69.57;100783.53;4901261;28;104250;-53
2021/11/20 07:01:23;;;;;;;6.35;4.45;;;;;;;13.22;69.65;100797.19;4898353;28;102027;-52
2021/11/20 07:03:53;;;;;;;5.75;4.80;;;;;;;13.24;69.62;100796.97;4895864;28;103958;-52
2021/11/20 07:06:37;;;;;;;5.85;4.60;;;;;;;13.22;69.48;100800.75;4897536;28;102150;-52
2021/11/20 07:09:04;;;;;;;6.47;4.13;;;;;;;13.22;69.52;100798.00;4894051;28;102463;-52
2021/11/20 07:11:31;;;;;;;6.30;4.28;;;;;;;13.21;69.64;100799.13;4907356;28;102230;-53
2021/11/20 07:13:57;;;;;;;5.35;4.00;;;;;;;13.23;69.61;100790.63;4897339;28;107820;-52
2021/11/20 07:16:27;;;;;;;5.15;4.35;;;;;;;13.22;69.73;100789.81;4895833;28;102059;-52
2021/11/20 07:18:53;;;;;;;5.15;4.38;;;;;;;13.22;69.30;100789.81;4893450;28;102155;-53
2021/11/20 07:21:25;;;;;;;4.88;3.88;;;;;;;13.24;69.67;100792.31;4899539;28;102189;-52
2021/11/20 07:23:52;;;;;;;5.47;4.47;;;;;;;13.23;69.64;100790.63;4891741;28;104136;-52
2021/11/20 07:26:18;;;;;;;6.00;4.45;;;;;;;13.24;69.61;100796.97;4900329;28;102433;-52
2021/11/20 07:28:45;;;;;;;4.90;4.40;;;;;;;13.24;69.52;100796.97;4902577;28;102156;-52
2021/11/20 07:31:12;;;;;;;6.60;4.68;;;;;;;13.24;69.67;100792.31;4901274;28;102628;-52
2021/11/20 07:33:39;;;;;;;5.07;4.57;;;;;;;13.24;70.17;100791.50;4898759;28;103995;-52
2021/11/20 07:36:07;;;;;;;5.18;4.13;;;;;;;13.25;69.50;100793.13;4891428;28;102200;-52
2021/11/20 07:38:37;;;;;;;4.93;4.38;;;;;;;13.26;69.81;100789.28;4903801;28;102449;-52
2021/11/20 07:41:04;;;;;;;5.47;4.10;;;;;;;13.25;69.74;100798.59;4889398;28;102385;-53
2021/11/20 07:43:32;;;;;;;4.47;4.00;;;;;;;13.25;69.86;100804.06;4906858;28;103905;-52
2021/11/20 07:45:58;;;;;;;5.55;4.30;;;;;;;13.25;70.01;100804.06;4897838;28;102300;-52
2021/11/20 07:48:27;;;;;;;5.18;4.50;;;;;;;13.26;69.48;100805.69;4898998;28;102446;-52
2021/11/20 07:50:55;;;;;;;4.53;4.10;;;;;;;13.26;69.63;100805.69;4895178;28;102975;-52
2021/11/20 07:53:23;;;;;;;5.53;4.20;;;;;;;13.26;69.61;100794.75;4891664;28;103893;-52
2021/11/20 07:55:52;;;;;;;5.50;4.20;;;;;;;13.26;69.73;100802.94;4887584;28;102457;-52
2021/11/20 07:58:21;;;;;;;5.35;3.85;;;;;;;13.26;69.82;100800.22;4895542;28;102330;-52
2021/11/20 08:00:48;;;;;;;5.27;4.77;;;;;;;13.26;69.88;100800.22;4900197;28;102480;-52
2021/11/20 08:03:14;;;;;;;4.82;4.30;;;;;;;13.27;69.76;100810.03;4894491;28;103862;-53
2021/11/20 08:05:42;;;;;;;4.68;4.15;;;;;;;13.26;69.80;100809.22;4890575;28;105153;-52
2021/11/20 08:08:10;;;;;;;4.40;4.00;;;;;;;13.27;69.81;100813.59;4900582;28;102343;-52
2021/11/20 08:10:37;;;;;;;4.30;3.90;;;;;;;13.27;69.95;100807.28;4900400;28;102306;-52
2021/11/20 08:13:05;;;;;;;4.97;3.95;;;;;;;13.27;69.80;100813.59;4898505;28;104025;-52
2021/11/20 08:15:32;;;;;;;4.72;4.28;;;;;;;13.27;69.60;100801.81;4898089;28;102265;-52
2021/11/20 08:18:00;;;;;;;4.20;3.58;;;;;;;13.28;69.74;100798.00;4894495;28;102609;-52
2021/11/20 08:20:29;;;;;;;4.25;3.78;;;;;;;13.28;69.77;100808.94;4895770;28;102193;-52
2021/11/20 08:22:55;;;;;;;4.78;4.10;;;;;;;13.28;69.71;100803.47;4898290;28;106602;-54
2021/11/20 08:25:24;;;;;;;5.55;4.25;;;;;;;13.28;69.91;100803.47;4898511;28;102391;-52
2021/11/20 08:27:51;;;;;;;5.05;3.65;;;;;;;13.28;69.79;100793.34;4899202;28;101984;-53
2021/11/20 08:30:22;;;;;;;4.22;3.75;;;;;;;13.29;69.82;100796.91;4900535;28;102139;-52
2021/11/20 08:32:49;;;;;;;4.25;3.67;;;;;;;13.29;69.71;100799.63;4893512;28;104192;-51
2021/11/20 08:35:17;;;;;;;4.82;3.97;;;;;;;13.28;69.87;100793.34;4899385;28;102204;-53
2021/11/20 08:37:44;;;;;;;4.18;3.70;;;;;;;13.29;69.75;100794.97;4896185;28;102623;-52
2021/11/20 08:40:13;;;;;;;5.50;3.88;;;;;;;13.29;69.81;100792.25;4900283;28;102325;-52
2021/11/20 08:42:41;;;;;;;4.30;3.90;;;;;;;13.30;69.72;100790.31;4909094;28;104023;-53
2021/11/20 08:45:10;;;;;;;5.10;3.80;;;;;;;13.30;69.78;100795.78;4893203;28;102756;-52
2021/11/20 08:47:38;;;;;;;5.65;4.00;;;;;;;13.30;69.79;100796.59;4886986;28;102149;-52
2021/11/20 08:50:07;;;;;;;4.90;4.40;;;;;;;13.30;70.00;100782.13;4900499;28;102196;-52
2021/11/20 08:52:35;;;;;;;5.47;4.03;;;;;;;13.31;69.78;100794.72;4905974;28;104237;-52
2021/11/20 08:55:01;;;;;;;6.10;4.05;;;;;;;13.30;69.95;100784.84;4901730;28;102389;-52
2021/11/20 08:57:28;;;;;;;4.65;4.15;;;;;;;13.31;69.97;100787.31;4898843;28;102435;-52
2021/11/20 08:59:54;;;;;;;3.72;3.38;;;;;;;13.31;69.84;100787.31;4906304;28;102321;-52
2021/11/20 09:02:25;;;;;;;4.47;3.80;;;;;;;13.32;69.70;100779.94;4902435;28;103742;-52
2021/11/20 09:04:56;;;;;;;4.30;3.55;;;;;;;13.32;69.83;100782.66;4897919;28;102134;-52
2021/11/20 09:07:27;;;;;;;4.80;4.07;;;;;;;13.31;69.87;100770.91;4895021;28;102973;-52
2021/11/20 09:09:57;;;;;;;4.22;3.78;;;;;;;13.30;69.90;100772.00;4899311;28;102206;-52
2021/11/20 09:12:32;;;;;;;3.85;3.55;;;;;;;13.31;69.88;100770.13;4905471;28;103898;-53
2021/11/20 09:15:02;;;;;;;4.18;3.67;;;;;;;13.31;69.87;100767.38;4896705;28;102360;-52
2021/11/20 09:17:29;;;;;;;4.78;3.58;;;;;;;13.32;69.70;100769.81;4893551;28;102228;-52
2021/11/20 09:19:57;;;;;;;3.85;3.42;;;;;;;13.32;69.71;100767.06;4905987;28;102223;-52
2021/11/20 09:22:23;;;;;;;4.18;3.42;;;;;;;13.32;69.77;100749.88;4894953;28;104031;-52
2021/11/20 09:24:50;;;;;;;4.25;3.80;;;;;;;13.33;70.03;100751.50;4897908;28;102573;-52
2021/11/20 09:27:16;;;;;;;4.18;3.80;;;;;;;13.32;69.83;100741.66;4898416;28;102124;-52
2021/11/20 09:29:45;;;;;;;4.13;3.67;;;;;;;13.32;69.76;100745.22;4898294;28;102191;-52
2021/11/20 09:32:13;;;;;;;4.75;3.45;;;;;;;13.32;69.70;100738.94;4907891;28;103941;-51
2021/11/20 09:34:40;;;;;;;3.85;3.53;;;;;;;13.32;69.94;100730.75;4882857;28;102746;-52
2021/11/20 09:37:08;;;;;;;3.97;3.40;;;;;;;13.32;70.12;100725.28;4898377;28;102258;-52
2021/11/20 09:39:37;;;;;;;4.50;3.65;;;;;;;13.32;69.97;100712.41;4907946;28;102372;-52
2021/11/20 09:42:23;;;;;;;;;;;;;;;13.33;69.94;100718.69;4894152;28;103720;-52
2021/11/20 09:44:52;;;;;;;3.92;3.42;;;;;;;13.33;69.84;100713.22;4904936;28;102524;-52
2021/11/20 09:47:22;;;;;;;5.53;3.45;;;;;;;13.33;69.86;100707.75;4882310;28;102270;-52
2021/11/20 09:49:52;;;;;;;3.92;3.42;;;;;;;13.33;69.81;100699.56;4899976;28;102522;-52
2021/11/20 09:52:20;;;;;;;4.40;3.83;;;;;;;13.34;69.88;100698.44;4899374;28;103713;-52
2021/11/20 09:54:48;;;;;;;4.37;3.33;;;;;;;13.34;69.84;100692.97;4897711;28;102547;-53
2021/11/20 09:57:23;;;;;;;3.88;3.47;;;;;;;13.34;69.84;100692.97;4898360;28;102148;-53
2021/11/20 09:59:52;;;;;;;3.55;3.20;;;;;;;13.33;69.93;100697.63;4898572;28;102243;-53
2021/11/20 10:02:22;;;;;;;3.47;3.17;;;;;;;13.33;69.89;100705.03;4897075;28;103779;-52
2021/11/20 10:04:53;;;;;;;4.28;3.47;;;;;;;13.35;70.02;100702.84;4896126;28;102445;-52
2021/11/20 10:07:27;;;;;;;4.57;3.47;;;;;;;13.35;69.93;100711.03;4898234;28;102696;-52
2021/11/20 10:09:58;;;;;;;3.58;3.28;;;;;;;13.35;69.61;100716.50;4897282;28;103398;-52
2021/11/20 10:12:30;;;;;;;4.07;3.30;;;;;;;13.35;69.66;100702.84;4889085;28;104933;-52
2021/11/20 10:15:01;;;;;;;3.83;3.45;;;;;;;13.35;69.94;100700.09;4894855;28;102642;-52
2021/11/20 10:17:36;;;;;;;3.80;3.15;;;;;;;13.36;69.99;100701.72;4906461;28;102389;-53
2021/11/20 10:20:17;;;;;;;3.22;2.90;;;;;;;13.36;69.82;100696.25;4906559;28;102912;-52
2021/11/20 10:22:55;;;;;;;3.25;2.92;;;;;;;13.35;69.55;100700.91;4897536;28;103935;-52
2021/11/20 10:25:31;;;;;;;3.22;2.92;;;;;;;13.35;69.87;100713.75;4897176;28;102205;-52
2021/11/20 10:28:08;;;;;;;5.13;3.58;;;;;;;13.35;69.89;100711.03;4894288;28;102357;-53
2021/11/20 10:30:39;;;;;;;3.35;3.00;;;;;;;13.35;69.80;100706.38;4896382;28;102678;-52
2021/11/20 10:33:10;;;;;;;5.18;3.35;;;;;;;13.36;69.98;100729.06;4896022;28;103968;-52
2021/11/20 10:35:44;;;;;;;4.03;3.55;;;;;;;13.36;70.00;100704.44;4907513;28;102181;-53
2021/11/20 10:38:28;;;;;;;4.15;3.00;;;;;;;13.35;69.57;100708.28;4899745;28;102328;-53
2021/11/20 10:41:01;;;;;;;6.15;3.35;;;;;;;13.36;69.98;100704.44;4908842;28;102127;-52
2021/11/20 10:43:32;;;;;;;3.35;2.95;;;;;;;13.35;69.96;100700.09;4894041;28;103901;-52
2021/11/20 10:46:16;;;;;;;3.65;2.95;;;;;;;13.36;69.90;100696.25;4911725;28;102286;-52
2021/11/20 10:48:47;;;;;;;3.50;3.17;;;;;;;13.36;69.92;100693.50;4903388;28;102625;-52
2021/11/20 10:51:47;;;;;;;5.63;3.08;;;;;;;13.36;69.83;100690.78;4900058;28;102258;-52
2021/11/20 10:54:39;;;;;;;3.75;2.78;;;;;;;13.36;69.87;100666.19;4895065;28;104056;-52
2021/11/20 10:57:09;;;;;;;3.67;2.78;;;;;;;13.36;69.87;100674.38;4908642;28;102567;-52
2021/11/20 11:00:16;;;;;;;4.18;3.08;;;;;;;13.36;69.87;100688.03;4905120;28;102568;-52
2021/11/20 11:03:26;;;;;;;6.18;3.15;;;;;;;13.37;69.79;100678.72;4893525;28;102211;-52
2021/11/20 11:06:29;;;;;;;3.67;2.83;;;;;;;13.37;69.75;100670.53;4887480;28;103903;-52
2021/11/20 11:09:00;;;;;;;4.15;2.97;;;;;;;13.36;69.77;100668.91;4908332;28;102113;-52
2021/11/20 11:11:35;;;;;;;5.43;2.80;;;;;;;13.36;69.96;100647.84;4895927;28;102179;-52
2021/11/20 11:14:18;;;;;;;5.00;3.22;;;;;;;13.36;69.92;100655.25;4894227;28;102053;-52
2021/11/20 11:16:48;;;;;;;3.42;2.75;;;;;;;13.37;69.99;100654.13;4895275;28;103967;-53
2021/11/20 11:19:36;;;;;;;3.78;2.92;;;;;;;13.37;69.89;100660.41;4897752;28;102460;-52
2021/11/20 11:22:12;;;;;;;6.18;2.90;;;;;;;13.37;69.96;100649.47;4896870;28;102514;-53
2021/11/20 11:24:55;;;;;;;4.38;2.97;;;;;;;13.37;70.01;100643.19;4896624;28;102965;-53
2021/11/20 11:27:29;;;;;;;4.68;3.17;;;;;;;13.37;70.06;100654.94;4882373;28;103677;-52
2021/11/20 11:30:09;;;;;;;3.72;3.13;;;;;;;13.37;70.04;100648.66;4887707;28;102637;-52